Time;durP1;ratioP1;P1;durP2;ratioP2;P2;SDS_P1;SDS_P2;PMS_P1;PMS_P2;Temp;Humidity;BMP_temperature;BMP_pressure;BME280_temperature;BME280_humidity;BME280_pressure;Samples;Min_cycle;Max_cycle;Signal;HPM_P1;HPM_P2
2023/07/31 00:01:10;;;;;;;5.40;3.35;;;;;12.50;96389.00;;;;8350360;28;20654;-66
2023/07/31 00:05:16;;;;;;;12.07;3.35;;;;;12.40;96375.00;;;;8359887;28;20230;-65
2023/07/31 00:09:21;;;;;;;7.43;3.20;;;;;12.30;96379.00;;;;8374518;28;20245;-68
2023/07/31 00:13:25;;;;;;;13.13;3.35;;;;;12.30;96381.00;;;;8352783;28;20230;-69
2023/07/31 00:17:29;;;;;;;5.35;3.65;;;;;12.20;96387.00;;;;8349517;28;20266;-65
2023/07/31 00:21:32;;;;;;;10.07;3.65;;;;;12.20;96378.00;;;;8340020;28;20203;-71
2023/07/31 00:25:36;;;;;;;12.10;2.97;;;;;12.20;96374.00;;;;8366279;28;20311;-65
2023/07/31 00:29:40;;;;;;;10.90;3.60;;;;;12.10;96382.00;;;;8348029;28;20756;-69
2023/07/31 00:33:43;;;;;;;11.85;3.58;;;;;12.10;96385.00;;;;8354321;28;20196;-66
2023/07/31 00:37:46;;;;;;;5.63;3.05;;;;;12.00;96383.00;;;;8330618;28;20223;-65
2023/07/31 00:42:05;;;;;;;4.97;3.58;;;;;11.90;96375.00;;;;8360753;28;20680;-65
2023/07/31 00:46:11;;;;;;;5.35;3.33;;;;;11.90;96376.00;;;;8352593;28;20844;-67
2023/07/31 00:50:16;;;;;;;15.68;4.03;;;;;11.90;96374.00;;;;8353408;28;20199;-66
2023/07/31 00:54:21;;;;;;;5.35;3.33;;;;;11.90;96363.00;;;;8344743;28;21488;-67
2023/07/31 00:58:29;;;;;;;11.45;3.50;;;;;11.90;96364.00;;;;8352220;28;20314;-67
2023/07/31 01:02:33;;;;;;;8.90;4.40;;;;;11.90;96361.00;;;;8355329;28;20318;-65
2023/07/31 01:06:43;;;;;;;6.15;3.63;;;;;11.90;96354.00;;;;8350173;28;20207;-69
2023/07/31 01:10:55;;;;;;;6.10;3.40;;;;;11.90;96358.00;;;;8351589;28;20571;-68
2023/07/31 01:15:10;;;;;;;7.78;3.22;;;;;11.90;96360.00;;;;8349691;28;20208;-68
2023/07/31 01:19:18;;;;;;;7.30;4.13;;;;;11.90;96351.00;;;;8336255;28;20207;-67
2023/07/31 01:23:48;;;;;;;9.40;3.55;;;;;12.00;96344.00;;;;8322727;28;20634;-66
2023/07/31 01:28:00;;;;;;;7.20;3.45;;;;;12.10;96348.00;;;;8328237;28;20208;-68
2023/07/31 01:32:07;;;;;;;8.60;3.53;;;;;12.20;96337.00;;;;8328338;28;20200;-67
2023/07/31 01:36:13;;;;;;;11.48;3.25;;;;;12.30;96346.00;;;;8333782;28;20566;-65
2023/07/31 01:40:17;;;;;;;10.13;3.92;;;;;12.30;96342.00;;;;8331883;28;20279;-65
2023/07/31 01:44:21;;;;;;;8.75;3.20;;;;;12.30;96341.00;;;;8339186;28;20200;-72
2023/07/31 01:48:25;;;;;;;8.75;3.50;;;;;12.20;96335.00;;;;8333511;28;20200;-65
2023/07/31 01:52:29;;;;;;;4.65;3.25;;;;;12.10;96331.00;;;;8331929;28;20461;-66
2023/07/31 01:56:38;;;;;;;9.40;3.22;;;;;12.10;96324.00;;;;8328532;28;20233;-65
2023/07/31 02:00:50;;;;;;;5.35;3.20;;;;;12.00;96326.00;;;;8330398;28;20395;-67
2023/07/31 02:04:57;;;;;;;10.07;3.50;;;;;12.00;96332.00;;;;8326684;28;20312;-65
2023/07/31 02:09:01;;;;;;;5.90;3.00;;;;;11.90;96335.00;;;;8332561;28;20200;-67
2023/07/31 02:13:11;;;;;;;8.48;3.65;;;;;11.80;96319.00;;;;8333401;28;20848;-65
2023/07/31 02:17:17;;;;;;;13.40;3.22;;;;;11.80;96321.00;;;;8340186;28;20256;-67
2023/07/31 02:21:23;;;;;;;12.27;3.50;;;;;11.70;96309.00;;;;8350214;28;20207;-66
2023/07/31 02:25:27;;;;;;;14.65;3.92;;;;;11.70;96304.00;;;;8363057;28;20582;-64
2023/07/31 02:29:30;;;;;;;10.13;3.70;;;;;11.80;96308.00;;;;8342452;28;20749;-66
2023/07/31 02:33:34;;;;;;;11.27;4.10;;;;;11.80;96308.00;;;;8349697;28;20744;-66
2023/07/31 02:37:39;;;;;;;5.93;3.22;;;;;11.90;96313.00;;;;8350089;28;20236;-70
2023/07/31 02:41:43;;;;;;;10.18;3.47;;;;;12.00;96295.00;;;;8348571;28;20232;-67
2023/07/31 02:45:46;;;;;;;8.68;3.50;;;;;12.10;96288.00;;;;8347074;28;20626;-66
2023/07/31 02:49:50;;;;;;;13.27;3.90;;;;;12.10;96277.00;;;;8356665;28;20236;-67
2023/07/31 02:53:53;;;;;;;7.05;3.90;;;;;12.20;96288.00;;;;8346037;28;20222;-69
2023/07/31 02:57:58;;;;;;;5.80;3.33;;;;;12.20;96289.00;;;;8354876;28;20648;-65
2023/07/31 03:02:01;;;;;;;5.20;3.10;;;;;12.20;96290.00;;;;8410059;22;20234;-68
2023/07/31 03:06:05;;;;;;;7.75;3.65;;;;;12.20;96293.00;;;;8356089;28;20287;-67
2023/07/31 03:10:12;;;;;;;6.53;3.47;;;;;12.10;96295.00;;;;8358887;28;20207;-64
2023/07/31 03:14:18;;;;;;;8.60;3.42;;;;;12.00;96297.00;;;;8359514;28;20246;-66
2023/07/31 03:18:23;;;;;;;9.18;3.30;;;;;12.00;96300.00;;;;8352026;28;20286;-68
2023/07/31 03:22:27;;;;;;;8.15;3.40;;;;;11.90;96302.00;;;;8371665;28;20201;-66
2023/07/31 03:26:36;;;;;;;9.55;3.47;;;;;11.90;96295.00;;;;8360772;28;20208;-65
2023/07/31 03:30:40;;;;;;;7.00;3.70;;;;;11.80;96296.00;;;;8366229;28;20530;-69
2023/07/31 03:34:46;;;;;;;14.02;4.00;;;;;11.80;96295.00;;;;8351744;28;20202;-65
2023/07/31 03:38:52;;;;;;;8.57;3.45;;;;;11.80;96292.00;;;;8365631;28;20273;-66
2023/07/31 03:42:55;;;;;;;9.50;3.97;;;;;11.80;96301.00;;;;8360010;28;20201;-65
2023/07/31 03:46:59;;;;;;;5.55;3.40;;;;;11.80;96304.00;;;;8353368;28;20719;-67
2023/07/31 03:51:02;;;;;;;21.63;4.00;;;;;11.80;96297.00;;;;8372803;28;20225;-68
2023/07/31 03:55:11;;;;;;;12.77;3.95;;;;;11.80;96292.00;;;;8372662;28;20682;-66
2023/07/31 03:59:15;;;;;;;10.50;3.38;;;;;11.80;96300.00;;;;8352656;28;20652;-65
2023/07/31 04:03:18;;;;;;;10.38;4.00;;;;;11.80;96293.00;;;;8347810;28;20363;-67
2023/07/31 04:07:21;;;;;;;10.85;3.42;;;;;11.80;96302.00;;;;8337087;28;20304;-67
2023/07/31 04:11:29;;;;;;;11.02;3.58;;;;;11.80;96300.00;;;;8340854;28;20198;-69
2023/07/31 04:15:34;;;;;;;8.85;3.42;;;;;11.80;96298.00;;;;8337115;28;20196;-69
2023/07/31 04:19:40;;;;;;;8.98;3.50;;;;;11.90;96294.00;;;;8314553;28;20223;-68
2023/07/31 04:23:46;;;;;;;9.13;3.70;;;;;11.90;96291.00;;;;8316022;28;20271;-68
2023/07/31 04:27:52;;;;;;;7.65;3.85;;;;;12.00;96283.00;;;;8326839;28;20964;-68
2023/07/31 04:31:59;;;;;;;4.97;3.50;;;;;12.20;96284.00;;;;8322148;28;20210;-67
2023/07/31 04:36:08;;;;;;;11.38;4.07;;;;;12.30;96280.00;;;;8344818;28;20306;-67
2023/07/31 04:40:12;;;;;;;8.98;3.50;;;;;12.50;96277.00;;;;8337333;28;20205;-67
2023/07/31 04:44:19;;;;;;;5.82;3.78;;;;;12.70;96275.00;;;;8335011;28;20657;-67
2023/07/31 04:48:27;;;;;;;6.97;3.72;;;;;12.90;96275.00;;;;8328669;28;20652;-65
2023/07/31 04:52:30;;;;;;;8.10;4.18;;;;;13.20;96276.00;;;;8334315;28;20201;-66
2023/07/31 04:56:34;;;;;;;9.02;3.70;;;;;13.60;96274.00;;;;8333739;28;20231;-69
2023/07/31 05:00:43;;;;;;;11.43;4.03;;;;;14.10;96268.00;;;;8337373;28;20276;-68
2023/07/31 05:04:49;;;;;;;7.20;3.33;;;;;14.50;96271.00;;;;8331394;28;20256;-71
2023/07/31 05:08:52;;;;;;;7.60;3.28;;;;;14.80;96273.00;;;;8331682;28;20247;-70
2023/07/31 05:12:57;;;;;;;12.25;3.30;;;;;15.10;96276.00;;;;8307227;28;20299;-67
2023/07/31 05:17:02;;;;;;;6.72;3.55;;;;;15.40;96271.00;;;;8328723;28;20820;-68
2023/07/31 05:21:05;;;;;;;8.27;3.38;;;;;15.60;96264.00;;;;8330425;28;20741;-70
2023/07/31 05:25:09;;;;;;;5.03;2.97;;;;;15.60;96257.00;;;;8315740;28;20315;-68
2023/07/31 05:29:12;;;;;;;6.63;3.30;;;;;15.80;96254.00;;;;8328032;28;20198;-71
2023/07/31 05:33:19;;;;;;;4.72;2.40;;;;;16.10;96248.00;;;;8329496;28;20777;-71
2023/07/31 05:37:23;;;;;;;3.92;2.55;;;;;16.50;96249.00;;;;8337492;28;20299;-69
2023/07/31 05:41:26;;;;;;;6.75;2.95;;;;;16.90;96248.00;;;;8330168;28;20295;-67
2023/07/31 05:45:32;;;;;;;5.45;2.80;;;;;17.30;96250.00;;;;8334792;28;20991;-71
2023/07/31 05:49:38;;;;;;;6.55;2.63;;;;;17.50;96251.00;;;;8327147;28;20240;-68
2023/07/31 05:53:41;;;;;;;7.07;2.40;;;;;17.90;96252.00;;;;8326576;28;20197;-71
2023/07/31 05:57:45;;;;;;;6.88;2.50;;;;;18.20;96248.00;;;;8333356;28;21830;-68
2023/07/31 06:01:49;;;;;;;6.05;2.50;;;;;18.80;96252.00;;;;8328028;28;20452;-73
2023/07/31 06:05:54;;;;;;;3.58;2.13;;;;;19.40;96256.00;;;;8331697;28;20312;-68
2023/07/31 06:10:05;;;;;;;6.47;2.03;;;;;19.50;96266.00;;;;8326430;28;20204;-68
2023/07/31 06:14:08;;;;;;;6.03;2.17;;;;;19.70;96265.00;;;;8326624;28;20233;-70
2023/07/31 06:18:14;;;;;;;6.68;2.20;;;;;19.90;96263.00;;;;8333456;28;20989;-71
2023/07/31 06:22:21;;;;;;;4.95;2.22;;;;;20.20;96255.00;;;;8320126;28;20215;-74
2023/07/31 06:26:27;;;;;;;11.43;2.47;;;;;20.30;96260.00;;;;8323643;28;20208;-70
2023/07/31 06:30:32;;;;;;;4.15;2.05;;;;;20.50;96262.00;;;;8328295;28;20288;-68
2023/07/31 06:34:35;;;;;;;3.65;1.98;;;;;20.90;96261.00;;;;8329823;28;20842;-68
2023/07/31 06:38:40;;;;;;;6.10;2.53;;;;;21.50;96272.00;;;;8308252;28;20225;-70
2023/07/31 06:42:49;;;;;;;1.85;1.75;;;;;21.90;96262.00;;;;8330171;28;20205;-69
2023/07/31 06:46:52;;;;;;;6.32;2.38;;;;;22.10;96265.00;;;;8313389;28;20205;-72
2023/07/31 06:50:55;;;;;;;3.00;2.10;;;;;22.10;96267.00;;;;8326772;28;20289;-70
2023/07/31 06:55:18;;;;;;;5.55;2.30;;;;;22.30;96252.00;;;;8325718;28;20748;-70
2023/07/31 06:59:22;;;;;;;4.70;2.13;;;;;22.40;96248.00;;;;8335139;28;20231;-71
2023/07/31 07:03:30;;;;;;;5.20;1.90;;;;;22.30;96253.00;;;;8332048;28;20928;-67
2023/07/31 07:07:33;;;;;;;4.43;2.00;;;;;22.30;96248.00;;;;8318990;28;20215;-69
2023/07/31 07:11:38;;;;;;;5.97;1.85;;;;;22.40;96258.00;;;;8313420;28;20289;-70
2023/07/31 07:15:45;;;;;;;4.22;1.92;;;;;22.50;96264.00;;;;8326072;28;20208;-70
2023/07/31 07:19:50;;;;;;;4.60;2.00;;;;;22.50;96267.00;;;;8336505;28;20229;-69
2023/07/31 07:23:54;;;;;;;3.92;1.80;;;;;22.60;96253.00;;;;8336918;28;20214;-72
2023/07/31 07:28:02;;;;;;;5.28;2.03;;;;;22.80;96259.00;;;;8323885;28;20881;-72
2023/07/31 07:32:07;;;;;;;5.13;2.08;;;;;22.80;96267.00;;;;8328393;28;20201;-69
2023/07/31 07:36:10;;;;;;;5.55;2.53;;;;;22.90;96259.00;;;;8334812;28;20213;-67
2023/07/31 07:40:13;;;;;;;9.45;2.85;;;;;23.00;96250.00;;;;8336038;28;20232;-69
2023/07/31 07:44:19;;;;;;;9.80;2.38;;;;;23.10;96255.00;;;;8332738;28;20208;-67
2023/07/31 07:48:25;;;;;;;6.13;2.20;;;;;23.00;96260.00;;;;8315000;28;20207;-70
2023/07/31 07:52:32;;;;;;;6.53;1.98;;;;;23.60;96261.00;;;;8330642;28;20193;-71
2023/07/31 07:56:36;;;;;;;3.55;2.10;;;;;24.60;96270.00;;;;8328015;28;20944;-72
2023/07/31 08:00:41;;;;;;;5.32;2.15;;;;;24.80;96272.00;;;;8325458;28;20243;-69
2023/07/31 08:04:45;;;;;;;3.67;1.92;;;;;24.60;96273.00;;;;8329682;28;20228;-68
2023/07/31 08:08:51;;;;;;;6.28;2.15;;;;;24.10;96266.00;;;;8325080;28;20202;-68
2023/07/31 08:12:54;;;;;;;3.05;2.10;;;;;23.70;96281.00;;;;8325202;28;20197;-70
2023/07/31 08:17:01;;;;;;;4.28;2.15;;;;;23.60;96282.00;;;;8327025;28;20196;-71
2023/07/31 08:21:06;;;;;;;6.53;2.13;;;;;23.70;96276.00;;;;8318056;28;20785;-66
2023/07/31 08:25:11;;;;;;;4.45;2.00;;;;;23.60;96279.00;;;;8319292;28;20848;-71
2023/07/31 08:29:14;;;;;;;6.18;2.65;;;;;23.70;96268.00;;;;8325243;28;20628;-71
2023/07/31 08:33:21;;;;;;;4.95;2.30;;;;;24.20;96268.00;;;;8326182;28;20650;-69
2023/07/31 08:37:27;;;;;;;8.85;2.53;;;;;24.50;96269.00;;;;8314483;28;20356;-72
2023/07/31 08:41:38;;;;;;;4.45;2.45;;;;;24.70;96262.00;;;;8323023;28;20279;-71
2023/07/31 08:45:45;;;;;;;4.75;2.10;;;;;25.20;96269.00;;;;8326279;28;20217;-68
2023/07/31 08:49:54;;;;;;;6.82;2.70;;;;;25.50;96273.00;;;;8327957;28;20227;-67
2023/07/31 08:53:59;;;;;;;4.93;2.60;;;;;26.10;96261.00;;;;8323876;28;20690;-70
2023/07/31 08:58:07;;;;;;;3.67;2.50;;;;;26.60;96260.00;;;;8325163;28;20232;-70
2023/07/31 09:02:10;;;;;;;5.28;2.33;;;;;26.80;96252.00;;;;8329296;28;20245;-66
2023/07/31 09:06:18;;;;;;;4.28;2.42;;;;;26.90;96240.00;;;;8330714;28;20202;-73
2023/07/31 09:10:21;;;;;;;5.97;2.63;;;;;26.80;96246.00;;;;8317203;28;20694;-72
2023/07/31 09:14:28;;;;;;;4.95;2.47;;;;;26.60;96238.00;;;;8330657;28;20203;-68
2023/07/31 09:18:55;;;;;;;5.90;2.60;;;;;26.60;96242.00;;;;8325712;28;20348;-66
2023/07/31 09:23:08;;;;;;;3.80;2.42;;;;;26.30;96237.00;;;;8330804;28;20228;-68
2023/07/31 09:27:12;;;;;;;4.55;2.40;;;;;25.80;96232.00;;;;8326377;28;20287;-66
2023/07/31 09:31:16;;;;;;;4.45;2.40;;;;;25.40;96236.00;;;;8325036;28;20205;-68
2023/07/31 09:35:22;;;;;;;7.82;2.70;;;;;25.30;96232.00;;;;8324007;28;20804;-69
2023/07/31 09:39:31;;;;;;;5.93;2.90;;;;;25.90;96214.00;;;;8332095;28;20237;-67
2023/07/31 09:43:34;;;;;;;9.15;2.85;;;;;26.10;96229.00;;;;8320371;28;20208;-70
2023/07/31 09:47:37;;;;;;;8.45;2.60;;;;;26.20;96221.00;;;;8317605;28;20280;-68
2023/07/31 09:51:42;;;;;;;4.40;2.45;;;;;26.40;96212.00;;;;8322236;28;20217;-70
2023/07/31 09:55:46;;;;;;;3.70;2.33;;;;;27.20;96212.00;;;;8304277;28;20311;-66
2023/07/31 09:59:53;;;;;;;6.53;2.50;;;;;27.90;96201.00;;;;8325991;28;20598;-67
2023/07/31 10:04:04;;;;;;;5.03;2.38;;;;;28.70;96196.00;;;;8326488;28;20224;-70
2023/07/31 10:08:11;;;;;;;3.70;2.53;;;;;28.20;96201.00;;;;8322373;28;20240;-67
2023/07/31 10:12:20;;;;;;;5.93;2.60;;;;;28.10;96198.00;;;;8307877;28;20722;-69
2023/07/31 10:16:24;;;;;;;4.07;2.42;;;;;28.00;96185.00;;;;8321305;28;20237;-68
2023/07/31 10:20:28;;;;;;;3.22;2.30;;;;;27.60;96181.00;;;;8311793;28;20240;-69
2023/07/31 10:24:32;;;;;;;3.30;2.33;;;;;27.80;96184.00;;;;8324193;28;20254;-68
2023/07/31 10:28:38;;;;;;;5.18;2.50;;;;;27.90;96179.00;;;;8320675;28;20670;-66
2023/07/31 10:32:44;;;;;;;5.15;2.28;;;;;27.70;96167.00;;;;8326548;28;20293;-67
2023/07/31 10:36:49;;;;;;;7.60;2.30;;;;;27.70;96159.00;;;;8331795;28;20790;-68
2023/07/31 10:40:52;;;;;;;2.63;2.15;;;;;28.00;96157.00;;;;8328393;28;20339;-69
2023/07/31 10:44:59;;;;;;;2.15;1.95;;;;;27.50;96155.00;;;;8327255;28;20211;-68
2023/07/31 10:49:13;;;;;;;3.40;2.22;;;;;27.30;96160.00;;;;8325791;28;20228;-66
2023/07/31 10:53:24;;;;;;;4.80;2.28;;;;;27.40;96154.00;;;;8299494;28;20284;-66
2023/07/31 10:57:39;;;;;;;2.75;2.20;;;;;27.50;96156.00;;;;8330859;28;20224;-66
2023/07/31 11:01:58;;;;;;;3.22;2.45;;;;;28.20;96145.00;;;;8306003;28;20228;-68
2023/07/31 11:06:03;;;;;;;6.50;2.22;;;;;28.00;96150.00;;;;8320059;28;20208;-66
2023/07/31 11:10:08;;;;;;;3.85;2.50;;;;;27.80;96139.00;;;;8320794;28;20196;-66
2023/07/31 11:14:14;;;;;;;3.97;2.63;;;;;27.70;96141.00;;;;8318119;28;20196;-67
2023/07/31 11:18:18;;;;;;;4.75;2.53;;;;;27.30;96129.00;;;;8321947;28;20197;-64
2023/07/31 11:22:24;;;;;;;5.90;2.38;;;;;27.60;96123.00;;;;8318816;28;20283;-65
2023/07/31 11:26:28;;;;;;;7.38;2.72;;;;;27.80;96118.00;;;;8323522;28;20308;-68
2023/07/31 11:30:33;;;;;;;3.58;2.40;;;;;27.80;96125.00;;;;8320976;28;20720;-64
2023/07/31 11:34:55;;;;;;;4.22;2.63;;;;;27.60;96123.00;;;;8323158;28;20194;-66
2023/07/31 11:39:09;;;;;;;2.67;2.25;;;;;27.10;96113.00;;;;8310510;28;20215;-66
2023/07/31 11:43:16;;;;;;;5.13;2.00;;;;;27.00;96099.00;;;;8331145;28;20201;-65
2023/07/31 11:47:22;;;;;;;5.28;2.15;;;;;28.10;96096.00;;;;8322103;28;20198;-66
2023/07/31 11:51:30;;;;;;;2.72;1.90;;;;;29.30;96091.00;;;;8327911;28;20205;-67
2023/07/31 11:55:34;;;;;;;2.83;1.95;;;;;29.60;96089.00;;;;8324124;28;20352;-66
2023/07/31 11:59:41;;;;;;;6.65;2.30;;;;;29.60;96090.00;;;;8335357;28;20687;-66
2023/07/31 12:03:48;;;;;;;6.40;2.40;;;;;30.20;96086.00;;;;8331661;28;20229;-67
2023/07/31 12:07:54;;;;;;;2.25;2.03;;;;;30.60;96078.00;;;;8308822;28;20202;-65
2023/07/31 12:11:57;;;;;;;2.35;1.77;;;;;31.20;96080.00;;;;8328434;28;20992;-66
2023/07/31 12:16:04;;;;;;;3.60;2.03;;;;;31.10;96061.00;;;;8328641;28;20649;-66
2023/07/31 12:20:14;;;;;;;4.18;2.20;;;;;31.10;96073.00;;;;8340900;28;20278;-65
2023/07/31 12:24:21;;;;;;;3.85;2.05;;;;;30.90;96057.00;;;;8329677;28;21001;-67
2023/07/31 12:28:25;;;;;;;2.95;2.50;;;;;31.20;96057.00;;;;8329850;28;20223;-66
2023/07/31 12:32:34;;;;;;;3.22;2.40;;;;;30.90;96052.00;;;;8321967;28;20235;-66
2023/07/31 12:36:39;;;;;;;4.03;2.22;;;;;30.40;96057.00;;;;8333691;28;20559;-66
2023/07/31 12:40:46;;;;;;;3.65;2.20;;;;;29.90;96048.00;;;;8326959;28;20229;-65
2023/07/31 12:44:49;;;;;;;4.72;2.47;;;;;29.30;96056.00;;;;8336217;28;20205;-66
2023/07/31 12:49:01;;;;;;;5.72;2.28;;;;;28.90;96056.00;;;;8313517;28;20207;-67
2023/07/31 12:53:28;;;;;;;3.80;1.90;;;;;28.60;96036.00;;;;8309613;28;20634;-67
2023/07/31 12:57:48;;;;;;;3.22;2.13;;;;;28.80;96043.00;;;;8300742;28;20201;-67
2023/07/31 13:01:56;;;;;;;5.85;2.33;;;;;29.00;96034.00;;;;8317958;28;20263;-66
2023/07/31 13:06:02;;;;;;;4.22;2.35;;;;;28.90;96027.00;;;;8292864;28;20212;-66
2023/07/31 13:10:09;;;;;;;7.22;2.25;;;;;28.80;96024.00;;;;8301745;28;20358;-67
2023/07/31 13:14:15;;;;;;;3.58;2.10;;;;;28.70;96017.00;;;;8304649;28;20353;-67
2023/07/31 13:18:20;;;;;;;4.78;2.25;;;;;28.80;95999.00;;;;8300115;28;20248;-68
2023/07/31 13:22:28;;;;;;;3.58;2.50;;;;;28.80;95991.00;;;;8308483;28;20256;-66
2023/07/31 13:26:35;;;;;;;2.33;2.13;;;;;28.90;95990.00;;;;8299387;28;20196;-67
2023/07/31 13:30:40;;;;;;;4.10;2.80;;;;;29.00;95982.00;;;;8305083;28;20328;-67
2023/07/31 13:34:44;;;;;;;3.80;2.78;;;;;29.60;95980.00;;;;8316512;28;21010;-67
2023/07/31 13:38:54;;;;;;;3.28;2.50;;;;;29.80;95976.00;;;;8310832;28;20219;-67
2023/07/31 13:42:58;;;;;;;4.47;2.40;;;;;29.20;95975.00;;;;8307970;28;20236;-68
2023/07/31 13:47:04;;;;;;;7.97;2.90;;;;;28.40;95962.00;;;;8306318;28;21034;-67
2023/07/31 13:51:10;;;;;;;5.15;2.80;;;;;28.40;95956.00;;;;8330687;28;20622;-67
2023/07/31 13:55:14;;;;;;;3.05;2.53;;;;;28.60;95961.00;;;;8339069;28;20232;-68
2023/07/31 13:59:18;;;;;;;8.82;2.80;;;;;28.50;95953.00;;;;8337919;28;20200;-68
2023/07/31 14:03:23;;;;;;;5.85;2.90;;;;;29.00;95945.00;;;;8332783;28;21024;-68
2023/07/31 14:07:26;;;;;;;2.60;2.40;;;;;29.90;95944.00;;;;8326649;28;20244;-68
2023/07/31 14:11:31;;;;;;;3.00;2.38;;;;;29.90;95939.00;;;;8325036;28;20303;-68
2023/07/31 14:15:35;;;;;;;4.18;2.70;;;;;30.00;95937.00;;;;8307479;28;20216;-68
2023/07/31 14:19:45;;;;;;;4.97;2.80;;;;;30.60;95936.00;;;;8332300;28;20204;-68
2023/07/31 14:23:48;;;;;;;5.93;2.67;;;;;31.20;95939.00;;;;8325275;28;20204;-67
2023/07/31 14:27:54;;;;;;;3.33;2.60;;;;;30.50;95936.00;;;;8312755;28;20220;-68
2023/07/31 14:31:57;;;;;;;6.40;2.75;;;;;29.80;95934.00;;;;8334771;28;20201;-68
2023/07/31 14:36:02;;;;;;;3.08;2.53;;;;;29.80;95931.00;;;;8311401;28;20204;-68
2023/07/31 14:40:07;;;;;;;4.80;3.08;;;;;30.00;95922.00;;;;8329283;28;20706;-68
2023/07/31 14:44:11;;;;;;;7.05;2.55;;;;;30.20;95934.00;;;;8330670;28;20201;-69
2023/07/31 14:48:15;;;;;;;7.07;2.90;;;;;29.90;95925.00;;;;8328187;28;20293;-67
2023/07/31 14:52:19;;;;;;;5.18;2.55;;;;;29.70;95916.00;;;;8329268;28;20300;-69
2023/07/31 14:56:29;;;;;;;7.38;2.78;;;;;30.20;95928.00;;;;8323487;28;20883;-68
2023/07/31 15:00:33;;;;;;;8.45;3.17;;;;;30.50;95928.00;;;;8330875;28;20225;-69
2023/07/31 15:04:36;;;;;;;6.35;2.95;;;;;29.90;95923.00;;;;8330443;28;20312;-68
2023/07/31 15:08:42;;;;;;;6.10;2.67;;;;;29.80;95910.00;;;;8322680;28;20379;-69
2023/07/31 15:12:45;;;;;;;3.38;2.70;;;;;29.80;95910.00;;;;8333835;28;20243;-67
2023/07/31 15:16:48;;;;;;;13.57;3.22;;;;;29.40;95912.00;;;;8335284;28;20240;-68
2023/07/31 15:20:52;;;;;;;4.32;2.78;;;;;29.20;95902.00;;;;8339803;28;20216;-67
2023/07/31 15:25:00;;;;;;;6.07;2.65;;;;;29.20;95900.00;;;;8337147;28;20935;-69
2023/07/31 15:29:08;;;;;;;3.65;2.50;;;;;28.90;95894.00;;;;8337241;28;20205;-68
2023/07/31 15:33:13;;;;;;;4.18;2.78;;;;;28.40;95888.00;;;;8327793;28;20205;-67
2023/07/31 15:37:17;;;;;;;81.82;7.85;;;;;28.30;95896.00;;;;8332775;28;20201;-68
2023/07/31 15:41:25;;;;;;;7.00;2.83;;;;;28.30;95894.00;;;;8333849;28;21004;-67
2023/07/31 15:45:30;;;;;;;41.00;5.53;;;;;28.20;95894.00;;;;8325911;28;20298;-69
2023/07/31 15:49:35;;;;;;;8.35;3.05;;;;;28.10;95890.00;;;;8341127;28;20203;-68
2023/07/31 15:53:38;;;;;;;4.85;2.78;;;;;27.60;95882.00;;;;8334495;28;20197;-68
2023/07/31 15:57:45;;;;;;;5.00;2.53;;;;;27.40;95874.00;;;;8340370;28;20200;-68
2023/07/31 16:01:50;;;;;;;5.15;2.78;;;;;27.20;95863.00;;;;8333620;28;20343;-69
2023/07/31 16:06:01;;;;;;;6.85;3.22;;;;;26.80;95869.00;;;;8331214;28;20271;-70
2023/07/31 16:10:06;;;;;;;2.95;2.33;;;;;26.50;95869.00;;;;8339515;28;20317;-69
2023/07/31 16:14:11;;;;;;;55.65;6.32;;;;;26.30;95864.00;;;;8327166;28;20267;-72
2023/07/31 16:18:21;;;;;;;5.05;2.63;;;;;26.10;95866.00;;;;8333971;28;20211;-69
2023/07/31 16:22:25;;;;;;;6.22;3.22;;;;;26.00;95866.00;;;;8333384;28;20264;-70
2023/07/31 16:26:28;;;;;;;5.20;2.75;;;;;26.00;95860.00;;;;8335580;28;20202;-69
2023/07/31 16:30:34;;;;;;;6.45;2.65;;;;;26.00;95851.00;;;;8313838;28;20197;-69
2023/07/31 16:34:37;;;;;;;5.80;3.15;;;;;25.90;95851.00;;;;8329772;28;20288;-70
2023/07/31 16:38:41;;;;;;;7.10;3.05;;;;;25.90;95857.00;;;;8321838;28;20233;-73
2023/07/31 16:42:44;;;;;;;52.97;5.70;;;;;25.90;95849.00;;;;8326508;28;20319;-74
2023/07/31 16:46:49;;;;;;;6.07;3.25;;;;;25.80;95844.00;;;;8330796;28;20237;-73
2023/07/31 16:50:52;;;;;;;3.60;2.70;;;;;25.80;95848.00;;;;8330027;28;20293;-72
2023/07/31 16:54:55;;;;;;;16.13;3.60;;;;;25.90;95844.00;;;;8330742;28;20224;-75
2023/07/31 16:59:00;;;;;;;7.28;2.90;;;;;26.00;95846.00;;;;8325106;28;20208;-74
2023/07/31 17:03:06;;;;;;;6.90;2.85;;;;;26.10;95841.00;;;;8334006;28;20233;-73
2023/07/31 17:07:11;;;;;;;6.03;2.85;;;;;26.10;95839.00;;;;8335135;28;20196;-73
2023/07/31 17:11:17;;;;;;;4.03;2.65;;;;;25.80;95835.00;;;;8332232;28;20673;-75
2023/07/31 17:15:23;;;;;;;4.13;2.65;;;;;25.70;95836.00;;;;8332048;28;20200;-74
2023/07/31 17:19:32;;;;;;;5.43;3.00;;;;;25.40;95822.00;;;;8327123;28;20309;-75
2023/07/31 17:23:38;;;;;;;6.85;2.80;;;;;25.30;95829.00;;;;8330784;28;20323;-74
2023/07/31 17:27:41;;;;;;;4.85;2.67;;;;;25.30;95826.00;;;;8329272;28;20292;-73
2023/07/31 17:31:44;;;;;;;8.35;3.00;;;;;25.20;95816.00;;;;8326433;28;20193;-77
2023/07/31 17:35:53;;;;;;;4.22;2.42;;;;;25.20;95812.00;;;;8323316;28;20726;-74
2023/07/31 17:39:57;;;;;;;5.30;2.85;;;;;25.30;95818.00;;;;8331647;28;20200;-73
2023/07/31 17:44:00;;;;;;;4.32;2.75;;;;;25.50;95803.00;;;;8332991;28;20256;-74
2023/07/31 17:48:08;;;;;;;3.45;2.50;;;;;25.90;95810.00;;;;8330895;28;20207;-75
2023/07/31 17:52:13;;;;;;;6.43;2.90;;;;;26.10;95806.00;;;;8337300;28;20239;-72
2023/07/31 17:56:20;;;;;;;8.77;2.88;;;;;26.10;95807.00;;;;8339581;28;20323;-75
2023/07/31 18:00:25;;;;;;;5.85;2.70;;;;;25.70;95815.00;;;;8331392;28;20207;-72
2023/07/31 18:04:28;;;;;;;4.63;2.60;;;;;25.30;95814.00;;;;8333271;28;20312;-76
2023/07/31 18:08:33;;;;;;;6.60;2.88;;;;;24.80;95817.00;;;;8327511;28;20308;-74
2023/07/31 18:12:36;;;;;;;6.15;3.40;;;;;24.40;95814.00;;;;8329338;28;20271;-74
2023/07/31 18:16:40;;;;;;;7.57;3.05;;;;;24.10;95810.00;;;;8332003;28;20803;-74
2023/07/31 18:20:45;;;;;;;5.50;2.80;;;;;23.90;95803.00;;;;8335668;28;20313;-72
2023/07/31 18:24:49;;;;;;;8.35;3.40;;;;;23.60;95818.00;;;;8332263;28;20348;-74
2023/07/31 18:28:55;;;;;;;6.47;2.95;;;;;23.40;95814.00;;;;8329660;28;20208;-74
2023/07/31 18:33:00;;;;;;;4.50;2.47;;;;;23.10;95795.00;;;;8336046;28;20228;-75
2023/07/31 18:37:05;;;;;;;12.00;3.95;;;;;23.00;95790.00;;;;8321811;28;20650;-72
2023/07/31 18:41:13;;;;;;;7.78;2.97;;;;;22.80;95795.00;;;;8332251;28;20205;-74
2023/07/31 18:45:16;;;;;;;19.10;3.72;;;;;22.70;95794.00;;;;8341052;28;20356;-72
2023/07/31 18:49:22;;;;;;;19.05;3.65;;;;;22.60;95803.00;;;;8343529;28;20600;-73
2023/07/31 18:53:25;;;;;;;10.30;3.17;;;;;22.50;95807.00;;;;8336202;28;20201;-70
2023/07/31 18:57:30;;;;;;;2.92;2.55;;;;;22.40;95790.00;;;;8341966;28;20208;-71
2023/07/31 19:01:36;;;;;;;8.98;3.22;;;;;22.40;95787.00;;;;8322770;28;20251;-72
2023/07/31 19:05:40;;;;;;;6.45;2.85;;;;;22.30;95780.00;;;;8330875;28;20233;-70
2023/07/31 19:09:45;;;;;;;17.27;3.03;;;;;22.30;95777.00;;;;8334032;28;20236;-69
2023/07/31 19:13:56;;;;;;;17.02;3.17;;;;;22.30;95782.00;;;;8332356;28;20203;-68
2023/07/31 19:18:00;;;;;;;6.97;3.00;;;;;22.20;95799.00;;;;8332461;28;20201;-70
2023/07/31 19:22:05;;;;;;;10.98;2.80;;;;;22.10;95789.00;;;;8333911;28;20241;-69
2023/07/31 19:26:09;;;;;;;7.82;3.28;;;;;22.00;95793.00;;;;8338337;28;20335;-71
2023/07/31 19:30:22;;;;;;;6.85;3.10;;;;;21.90;95782.00;;;;8340720;28;20278;-71
2023/07/31 19:34:25;;;;;;;9.98;3.47;;;;;21.80;95788.00;;;;8343529;28;20325;-71
2023/07/31 19:38:29;;;;;;;12.02;3.33;;;;;21.70;95794.00;;;;8319221;28;20276;-70
2023/07/31 19:42:35;;;;;;;17.88;3.20;;;;;21.60;95796.00;;;;8339438;28;20762;-71
2023/07/31 19:46:40;;;;;;;7.13;2.88;;;;;21.60;95788.00;;;;8334201;28;20255;-70
2023/07/31 19:50:43;;;;;;;6.75;3.08;;;;;21.60;95771.00;;;;8338362;28;20201;-70
2023/07/31 19:54:49;;;;;;;5.95;3.03;;;;;21.60;95782.00;;;;8330255;28;20777;-69
2023/07/31 19:58:56;;;;;;;7.50;3.05;;;;;21.60;95780.00;;;;8337402;28;20297;-70
2023/07/31 20:03:02;;;;;;;6.75;2.85;;;;;21.50;95772.00;;;;8333751;28;20825;-70
2023/07/31 20:07:10;;;;;;;7.22;2.90;;;;;21.50;95770.00;;;;8330171;28;20233;-70
2023/07/31 20:11:14;;;;;;;6.38;3.17;;;;;21.50;95756.00;;;;8342734;28;20967;-70
2023/07/31 20:15:23;;;;;;;4.32;2.67;;;;;21.40;95760.00;;;;8327514;28;20193;-70
2023/07/31 20:19:29;;;;;;;7.68;3.10;;;;;21.40;95758.00;;;;8332763;28;20644;-70
2023/07/31 20:23:34;;;;;;;5.85;3.00;;;;;21.40;95745.00;;;;8340893;28;20221;-70
2023/07/31 20:27:45;;;;;;;5.90;3.15;;;;;21.40;95738.00;;;;8327313;28;20761;-70